Time;durP1;ratioP1;P1;durP2;ratioP2;P2;SDS_P1;SDS_P2;PMS_P1;PMS_P2;Temp;Humidity;BMP_temperature;BMP_pressure;BME280_temperature;BME280_humidity;BME280_pressure;Samples;Min_cycle;Max_cycle;Signal;HPM_P1;HPM_P2
2023/06/23 00:01:15;;;;;;;32.90;30.50;;;;;;;;;;5092680;28;20020;-57
2023/06/23 00:03:43;;;;;;;32.50;30.10;;;;;;;;;;5092440;28;20563;-56
2023/06/23 00:06:09;;;;;;;34.25;31.75;;;;;;;;;;5092249;28;20363;-55
2023/06/23 00:08:35;;;;;;;35.20;32.60;;;;;;;;;;5092389;28;20028;-57
2023/06/23 00:11:01;;;;;;;35.60;33.10;;;;;;;;;;5092293;28;20022;-55
2023/06/23 00:13:27;;;;;;;35.65;33.15;;;;;;;;;;5092495;28;20071;-53
2023/06/23 00:15:53;;;;;;;38.40;35.80;;;;;;;;;;5092087;28;20047;-53
2023/06/23 00:18:23;;;;;;;35.67;33.17;;;;;;;;;;5092196;28;20056;-55
2023/06/23 00:20:49;;;;;;;36.22;33.72;;;;;;;;;;5092140;28;20480;-57
2023/06/23 00:23:15;;;;;;;36.20;33.70;;;;;;;;;;5091923;28;20048;-57
2023/06/23 00:25:42;;;;;;;35.95;33.45;;;;;;;;;;5073890;28;20032;-59
2023/06/23 00:28:07;;;;;;;35.85;33.35;;;;;;;;;;5092037;28;20031;-58
2023/06/23 00:30:33;;;;;;;35.00;32.58;;;;;;;;;;5091706;28;20206;-58
2023/06/23 00:32:59;;;;;;;34.75;32.35;;;;;;;;;;5091912;28;20062;-60
2023/06/23 00:35:25;;;;;;;34.72;32.33;;;;;;;;;;5091562;28;20573;-59
2023/06/23 00:37:53;;;;;;;33.78;31.38;;;;;;;;;;5091848;28;20020;-57
2023/06/23 00:40:22;;;;;;;33.30;30.80;;;;;;;;;;5091789;28;20020;-56
2023/06/23 00:42:52;;;;;;;31.35;29.05;;;;;;;;;;5091886;28;20030;-56
2023/06/23 00:45:18;;;;;;;30.77;28.58;;;;;;;;;;5092207;28;20472;-57
2023/06/23 00:47:45;;;;;;;31.20;28.90;;;;;;;;;;5092051;28;20028;-57
2023/06/23 00:50:20;;;;;;;31.05;28.75;;;;;;;;;;5091720;28;20149;-58
2023/06/23 00:52:50;;;;;;;31.50;29.20;;;;;;;;;;5091526;28;20028;-58
2023/06/23 00:55:18;;;;;;;31.73;29.38;;;;;;;;;;5091572;28;20028;-56
2023/06/23 00:57:44;;;;;;;31.77;29.48;;;;;;;;;;5091917;28;20016;-59
2023/06/23 01:00:18;;;;;;;30.17;27.98;;;;;;;;;;5073783;28;20024;-57
2023/06/23 01:02:51;;;;;;;29.73;27.52;;;;;;;;;;5091896;28;20024;-58
2023/06/23 01:05:21;;;;;;;30.08;27.88;;;;;;;;;;5073275;28;20032;-57
2023/06/23 01:07:57;;;;;;;30.00;27.80;;;;;;;;;;5073647;28;20024;-57
2023/06/23 01:10:43;;;;;;;29.98;27.77;;;;;;;;;;5091516;28;20107;-60
2023/06/23 01:13:14;;;;;;;28.17;26.08;;;;;;;;;;5091151;28;20468;-59
2023/06/23 01:15:42;;;;;;;28.42;26.33;;;;;;;;;;5091473;28;20077;-56
2023/06/23 01:18:20;;;;;;;28.77;26.40;;;;;;;;;;5091538;28;20020;-57
2023/06/23 01:20:47;;;;;;;26.83;24.73;;;;;;;;;;5091623;28;20169;-57
2023/06/23 01:23:25;;;;;;;27.35;25.25;;;;;;;;;;5091483;28;20523;-57
2023/06/23 01:26:00;;;;;;;28.40;26.30;;;;;;;;;;5073229;28;20084;-62
2023/06/23 01:28:39;;;;;;;27.73;25.63;;;;;;;;;;5073656;28;20032;-59
2023/06/23 01:31:08;;;;;;;27.67;25.58;;;;;;;;;;5073645;28;20032;-61
2023/06/23 01:33:39;;;;;;;29.25;27.05;;;;;;;;;;5073461;28;20535;-59
2023/06/23 01:36:09;;;;;;;29.50;27.30;;;;;;;;;;5091401;28;20024;-53
2023/06/23 01:38:44;;;;;;;31.65;29.35;;;;;;;;;;5091254;28;20103;-58
2023/06/23 01:41:13;;;;;;;32.25;29.73;;;;;;;;;;5091311;28;20035;-59
2023/06/23 01:43:42;;;;;;;31.58;29.27;;;;;;;;;;5091218;28;20474;-60
2023/06/23 01:46:08;;;;;;;;;;;;;;;;;;5091397;28;20048;-59
2023/06/23 01:48:36;;;;;;;30.80;28.50;;;;;;;;;;5090998;28;20429;-57
2023/06/23 01:51:03;;;;;;;29.73;27.52;;;;;;;;;;5091295;28;20078;-55
2023/06/23 01:53:31;;;;;;;30.23;28.02;;;;;;;;;;5091148;28;20396;-57
2023/06/23 01:55:57;;;;;;;29.63;27.42;;;;;;;;;;5092121;28;20020;-59
2023/06/23 01:58:24;;;;;;;32.60;30.20;;;;;;;;;;5094864;28;20020;-57
2023/06/23 02:00:50;;;;;;;32.88;30.48;;;;;;;;;;5094823;28;20035;-55
2023/06/23 02:03:16;;;;;;;31.98;29.63;;;;;;;;;;5094665;28;20093;-58
2023/06/23 02:05:45;;;;;;;31.77;29.48;;;;;;;;;;5076200;28;20024;-54
2023/06/23 02:08:12;;;;;;;35.85;33.20;;;;;;;;;;5094822;28;20396;-56
2023/06/23 02:10:38;;;;;;;32.33;29.92;;;;;;;;;;5076311;28;20024;-56
2023/06/23 02:13:06;;;;;;;31.95;29.55;;;;;;;;;;5094677;28;20031;-57
2023/06/23 02:15:33;;;;;;;33.45;30.95;;;;;;;;;;5094547;28;20031;-56
2023/06/23 02:18:01;;;;;;;33.63;31.13;;;;;;;;;;5076334;28;20024;-58
2023/06/23 02:20:28;;;;;;;32.80;30.40;;;;;;;;;;5094470;28;20504;-55
2023/06/23 02:22:54;;;;;;;33.08;30.67;;;;;;;;;;5076134;28;20036;-56
2023/06/23 02:25:21;;;;;;;32.83;30.42;;;;;;;;;;5094184;28;20453;-57
2023/06/23 02:27:48;;;;;;;33.15;30.75;;;;;;;;;;5094104;28;20032;-57
2023/06/23 02:30:17;;;;;;;33.35;30.95;;;;;;;;;;5076106;28;20030;-56
2023/06/23 02:32:44;;;;;;;32.72;30.33;;;;;;;;;;5089292;28;20027;-56
2023/06/23 02:35:10;;;;;;;32.83;30.42;;;;;;;;;;5093738;28;20028;-58
2023/06/23 02:37:37;;;;;;;33.30;30.80;;;;;;;;;;5085674;28;20031;-57
2023/06/23 02:40:16;;;;;;;32.42;30.02;;;;;;;;;;5094096;28;20024;-55
2023/06/23 02:42:43;;;;;;;32.60;30.20;;;;;;;;;;5085775;28;20112;-56
2023/06/23 02:45:13;;;;;;;31.90;29.50;;;;;;;;;;5086043;28;20033;-55
2023/06/23 02:47:40;;;;;;;32.38;29.98;;;;;;;;;;5073854;28;20038;-56
2023/06/23 02:50:11;;;;;;;32.80;29.98;;;;;;;;;;5073621;28;20111;-56
2023/06/23 02:52:41;;;;;;;31.50;29.10;;;;;;;;;;5073894;28;20020;-58
2023/06/23 02:55:08;;;;;;;32.22;29.85;;;;;;;;;;5074137;28;20017;-58
2023/06/23 02:57:35;;;;;;;31.70;29.40;;;;;;;;;;5085266;28;20029;-58
2023/06/23 03:00:06;;;;;;;31.98;29.67;;;;;;;;;;5093699;28;20028;-59
2023/06/23 03:02:32;;;;;;;30.90;28.60;;;;;;;;;;5093584;28;20032;-56
2023/06/23 03:04:58;;;;;;;30.63;28.33;;;;;;;;;;5093148;28;20031;-60
2023/06/23 03:07:25;;;;;;;31.55;29.25;;;;;;;;;;5074134;28;20105;-58
2023/06/23 03:09:51;;;;;;;31.65;29.35;;;;;;;;;;5075318;28;20024;-57
2023/06/23 03:12:18;;;;;;;31.83;29.52;;;;;;;;;;5093456;28;20027;-57
2023/06/23 03:14:45;;;;;;;31.10;28.80;;;;;;;;;;5074833;28;20074;-55
2023/06/23 03:17:15;;;;;;;30.70;28.45;;;;;;;;;;5093715;28;20402;-59
2023/06/23 03:19:44;;;;;;;30.38;28.17;;;;;;;;;;5093484;28;20024;-54
2023/06/23 03:22:16;;;;;;;31.38;29.08;;;;;;;;;;5074988;28;20446;-58
2023/06/23 03:24:44;;;;;;;31.73;29.42;;;;;;;;;;5092668;28;20101;-52
2023/06/23 03:27:11;;;;;;;30.87;28.57;;;;;;;;;;5093277;28;20062;-58
2023/06/23 03:30:02;;;;;;;31.70;29.40;;;;;;;;;;5093026;28;20035;-58
2023/06/23 03:32:31;;;;;;;32.22;29.83;;;;;;;;;;5083014;28;20028;-58
2023/06/23 03:35:10;;;;;;;34.20;31.73;;;;;;;;;;5092213;28;20095;-57
2023/06/23 03:37:36;;;;;;;;;;;;;;;;;;5067050;28;20032;-58
2023/06/23 03:40:09;;;;;;;33.70;31.20;;;;;;;;;;5093249;28;19904;-60
2023/06/23 03:42:40;;;;;;;33.33;30.92;;;;;;;;;;5092999;28;20024;-59
2023/06/23 03:45:07;;;;;;;34.17;31.77;;;;;;;;;;5092391;28;20031;-60
2023/06/23 03:47:34;;;;;;;34.08;31.58;;;;;;;;;;5092702;28;20020;-60
2023/06/23 03:50:03;;;;;;;32.60;30.20;;;;;;;;;;5092602;28;20028;-58
2023/06/23 03:52:29;;;;;;;32.75;30.35;;;;;;;;;;5092668;28;20030;-58
2023/06/23 03:54:56;;;;;;;33.63;31.23;;;;;;;;;;5074162;28;20020;-57
2023/06/23 03:57:29;;;;;;;32.05;29.75;;;;;;;;;;5074416;28;20028;-59
2023/06/23 03:59:56;;;;;;;32.83;30.42;;;;;;;;;;5092523;28;20093;-59
2023/06/23 04:02:22;;;;;;;31.50;29.20;;;;;;;;;;5074172;28;20112;-55
2023/06/23 04:04:50;;;;;;;31.73;29.30;;;;;;;;;;5091907;28;20024;-59
2023/06/23 04:07:16;;;;;;;30.95;28.65;;;;;;;;;;5092230;28;20028;-56
2023/06/23 04:09:44;;;;;;;31.60;29.30;;;;;;;;;;5092419;28;20028;-59
2023/06/23 04:12:11;;;;;;;30.73;28.42;;;;;;;;;;5092259;28;20035;-59
2023/06/23 04:14:38;;;;;;;32.17;29.77;;;;;;;;;;5091797;28;20024;-58
2023/06/23 04:17:04;;;;;;;31.75;29.35;;;;;;;;;;5092382;28;20032;-57
2023/06/23 04:19:31;;;;;;;31.30;29.00;;;;;;;;;;5091952;28;20059;-58
2023/06/23 04:21:59;;;;;;;30.60;28.30;;;;;;;;;;5092069;28;20028;-59
2023/06/23 04:24:26;;;;;;;29.33;27.13;;;;;;;;;;5091627;28;20082;-57
2023/06/23 04:26:53;;;;;;;29.58;27.38;;;;;;;;;;5077535;28;20020;-57
2023/06/23 04:29:20;;;;;;;30.58;28.23;;;;;;;;;;5071600;28;20526;-57
2023/06/23 04:31:48;;;;;;;29.80;27.55;;;;;;;;;;5071744;28;20074;-58
2023/06/23 04:34:14;;;;;;;29.58;27.38;;;;;;;;;;5079141;28;20028;-58
2023/06/23 04:36:42;;;;;;;29.73;27.48;;;;;;;;;;5089665;28;20379;-57
2023/06/23 04:39:19;;;;;;;29.95;27.67;;;;;;;;;;5085911;28;20016;-57
2023/06/23 04:41:48;;;;;;;29.83;27.63;;;;;;;;;;5065130;28;20486;-59
2023/06/23 04:44:15;;;;;;;30.38;28.08;;;;;;;;;;5073391;28;20046;-59
2023/06/23 04:46:42;;;;;;;28.52;26.33;;;;;;;;;;5091615;28;20369;-59
2023/06/23 04:49:09;;;;;;;27.85;25.65;;;;;;;;;;5065076;28;20084;-60
2023/06/23 04:51:36;;;;;;;28.40;26.20;;;;;;;;;;5091667;28;20035;-59
2023/06/23 04:54:05;;;;;;;28.27;26.08;;;;;;;;;;5091355;28;20020;-58
2023/06/23 04:56:34;;;;;;;27.25;25.15;;;;;;;;;;5091443;28;20024;-60
2023/06/23 04:59:03;;;;;;;27.60;25.48;;;;;;;;;;5083117;28;20028;-60
2023/06/23 05:01:30;;;;;;;28.52;26.33;;;;;;;;;;5091508;28;20092;-60
2023/06/23 05:03:58;;;;;;;27.15;25.05;;;;;;;;;;5092172;28;20110;-59
2023/06/23 05:06:24;;;;;;;28.15;26.05;;;;;;;;;;5093133;28;20064;-60
2023/06/23 05:08:51;;;;;;;30.73;28.42;;;;;;;;;;5072054;28;20480;-59
2023/06/23 05:11:17;;;;;;;29.17;26.88;;;;;;;;;;5083254;28;20427;-59
2023/06/23 05:13:44;;;;;;;27.58;25.48;;;;;;;;;;5092676;28;20030;-56
2023/06/23 05:16:12;;;;;;;26.85;24.75;;;;;;;;;;5084718;28;20020;-60
2023/06/23 05:18:39;;;;;;;27.98;25.77;;;;;;;;;;5089228;28;20030;-53
2023/06/23 05:21:05;;;;;;;26.35;24.23;;;;;;;;;;5091624;28;20028;-54
2023/06/23 05:23:35;;;;;;;26.00;23.90;;;;;;;;;;5073430;28;20096;-55
2023/06/23 05:26:01;;;;;;;26.17;24.08;;;;;;;;;;5091479;28;20035;-56
2023/06/23 05:28:27;;;;;;;26.30;24.20;;;;;;;;;;5082862;28;20055;-57
2023/06/23 05:30:55;;;;;;;25.40;23.40;;;;;;;;;;5092604;28;20047;-56
2023/06/23 05:33:23;;;;;;;24.92;22.92;;;;;;;;;;5094996;28;20024;-58
2023/06/23 05:35:50;;;;;;;25.20;23.20;;;;;;;;;;5094766;28;20024;-55
2023/06/23 05:38:17;;;;;;;25.80;23.70;;;;;;;;;;5095092;28;20028;-58
2023/06/23 05:40:43;;;;;;;24.92;22.92;;;;;;;;;;5094931;28;20115;-56
2023/06/23 05:43:09;;;;;;;25.10;23.00;;;;;;;;;;5095014;28;20052;-56
2023/06/23 05:45:35;;;;;;;24.48;22.48;;;;;;;;;;5094626;28;20028;-56
2023/06/23 05:48:23;;;;;;;23.63;21.63;;;;;;;;;;5076514;28;20468;-59
2023/06/23 05:50:50;;;;;;;23.27;21.35;;;;;;;;;;5076470;28;20506;-57
2023/06/23 05:53:20;;;;;;;24.80;22.70;;;;;;;;;;5094558;28;20059;-58
2023/06/23 05:55:55;;;;;;;23.77;21.77;;;;;;;;;;5094326;28;20657;-58
2023/06/23 05:58:23;;;;;;;23.27;21.33;;;;;;;;;;5078678;28;20021;-58
2023/06/23 06:00:53;;;;;;;22.40;20.50;;;;;;;;;;5094301;28;20028;-56
2023/06/23 06:03:20;;;;;;;22.35;20.45;;;;;;;;;;5094482;28;20024;-57
2023/06/23 06:05:49;;;;;;;22.83;20.85;;;;;;;;;;5094126;28;20503;-57
2023/06/23 06:08:16;;;;;;;21.58;19.65;;;;;;;;;;5094285;28;20028;-58
2023/06/23 06:10:42;;;;;;;20.38;18.58;;;;;;;;;;5076088;28;20028;-56
2023/06/23 06:13:08;;;;;;;20.60;18.70;;;;;;;;;;5082915;28;20043;-60
2023/06/23 06:15:34;;;;;;;17.75;16.05;;;;;;;;;;5086710;28;20024;-57
2023/06/23 06:18:04;;;;;;;16.95;15.25;;;;;;;;;;5077249;28;20075;-58
2023/06/23 06:20:31;;;;;;;18.50;16.70;;;;;;;;;;5073825;28;20157;-57
2023/06/23 06:22:57;;;;;;;17.05;15.35;;;;;;;;;;5073541;28;20393;-58
2023/06/23 06:25:24;;;;;;;18.58;16.67;;;;;;;;;;5055677;28;20028;-56
2023/06/23 06:27:51;;;;;;;16.20;14.50;;;;;;;;;;5073752;28;20036;-58
2023/06/23 06:30:18;;;;;;;16.85;15.15;;;;;;;;;;5073073;28;20586;-60
2023/06/23 06:32:44;;;;;;;20.83;18.63;;;;;;;;;;5073776;28;20032;-57
2023/06/23 06:35:11;;;;;;;32.72;28.27;;;;;;;;;;5073383;28;20021;-55
2023/06/23 06:37:38;;;;;;;31.15;27.13;;;;;;;;;;5055922;28;20025;-60
2023/06/23 06:40:06;;;;;;;32.83;28.50;;;;;;;;;;5073479;28;20048;-55
2023/06/23 06:42:32;;;;;;;33.58;28.75;;;;;;;;;;5073264;28;20085;-57
2023/06/23 06:44:58;;;;;;;32.42;28.98;;;;;;;;;;5073192;28;20025;-58
2023/06/23 06:47:25;;;;;;;35.10;28.08;;;;;;;;;;5073270;28;20029;-55
2023/06/23 06:49:52;;;;;;;31.23;26.45;;;;;;;;;;5073215;28;20552;-56
2023/06/23 06:52:19;;;;;;;30.80;27.58;;;;;;;;;;5073171;28;20803;-55
2023/06/23 06:54:45;;;;;;;32.08;27.65;;;;;;;;;;5072569;28;20021;-55
2023/06/23 06:57:11;;;;;;;31.80;27.02;;;;;;;;;;5073084;28;20623;-57
2023/06/23 06:59:37;;;;;;;34.00;27.88;;;;;;;;;;5073073;28;20024;-57
2023/06/23 07:02:04;;;;;;;34.20;26.80;;;;;;;;;;5073235;28;20626;-58
2023/06/23 07:04:30;;;;;;;32.22;25.98;;;;;;;;;;5054774;28;20488;-57
2023/06/23 07:06:56;;;;;;;40.95;27.77;;;;;;;;;;5073145;28;20025;-56
2023/06/23 07:09:22;;;;;;;33.47;24.52;;;;;;;;;;5073036;28;20047;-56
2023/06/23 07:11:49;;;;;;;35.20;24.80;;;;;;;;;;5073339;28;20036;-56
2023/06/23 07:14:15;;;;;;;32.53;27.40;;;;;;;;;;5072810;28;20044;-60
2023/06/23 07:16:41;;;;;;;30.73;24.65;;;;;;;;;;5072410;28;20020;-55
2023/06/23 07:19:07;;;;;;;30.67;25.00;;;;;;;;;;5073298;28;20024;-58
2023/06/23 07:21:33;;;;;;;31.40;24.63;;;;;;;;;;5072873;28;20076;-55
2023/06/23 07:23:59;;;;;;;33.47;26.67;;;;;;;;;;5072098;28;20123;-60
2023/06/23 07:26:25;;;;;;;30.42;23.15;;;;;;;;;;5072367;28;20083;-52
2023/06/23 07:28:51;;;;;;;31.58;25.10;;;;;;;;;;5072189;28;20031;-57
2023/06/23 07:31:17;;;;;;;28.45;23.08;;;;;;;;;;5072542;28;20021;-54
2023/06/23 07:33:43;;;;;;;28.48;22.85;;;;;;;;;;5072370;28;20031;-57
2023/06/23 07:36:09;;;;;;;32.63;23.88;;;;;;;;;;5072162;28;20028;-58
2023/06/23 07:38:35;;;;;;;27.48;21.23;;;;;;;;;;5072429;28;20036;-56
2023/06/23 07:41:01;;;;;;;28.77;19.33;;;;;;;;;;5072018;28;20488;-54
2023/06/23 07:43:27;;;;;;;26.02;19.67;;;;;;;;;;5072394;28;20432;-61
2023/06/23 07:45:53;;;;;;;28.98;19.63;;;;;;;;;;5070645;28;20023;-57
2023/06/23 07:48:19;;;;;;;27.52;17.85;;;;;;;;;;5072068;28;20602;-57
2023/06/23 07:50:46;;;;;;;25.73;19.10;;;;;;;;;;5072016;28;20044;-58
2023/06/23 07:53:12;;;;;;;27.15;18.70;;;;;;;;;;5071392;28;20016;-56
2023/06/23 07:55:38;;;;;;;24.85;17.92;;;;;;;;;;5071358;28;20013;-58
2023/06/23 07:58:04;;;;;;;22.20;16.73;;;;;;;;;;5053778;28;20031;-53
2023/06/23 08:00:30;;;;;;;25.42;18.15;;;;;;;;;;5071823;28;20033;-57
2023/06/23 08:02:57;;;;;;;25.95;16.80;;;;;;;;;;5076340;28;20081;-53
2023/06/23 08:05:23;;;;;;;24.55;16.30;;;;;;;;;;5087240;28;20020;-56
2023/06/23 08:07:49;;;;;;;21.83;16.20;;;;;;;;;;5082520;28;20090;-54
2023/06/23 08:10:15;;;;;;;21.05;15.48;;;;;;;;;;5086859;28;20051;-58
2023/06/23 08:12:41;;;;;;;21.38;14.75;;;;;;;;;;5091872;28;20020;-59
2023/06/23 08:15:08;;;;;;;22.80;14.57;;;;;;;;;;5065440;28;20013;-53
2023/06/23 08:17:35;;;;;;;20.50;12.90;;;;;;;;;;5074652;28;20109;-58
2023/06/23 08:20:01;;;;;;;20.40;12.57;;;;;;;;;;5065518;28;20024;-59
2023/06/23 08:22:27;;;;;;;19.27;11.52;;;;;;;;;;5091755;28;20024;-56
2023/06/23 08:24:52;;;;;;;20.05;12.75;;;;;;;;;;5091252;28;20395;-56
2023/06/23 08:27:19;;;;;;;21.33;10.90;;;;;;;;;;5073316;28;20012;-53
2023/06/23 08:29:45;;;;;;;18.40;10.52;;;;;;;;;;5083204;28;20032;-59
2023/06/23 08:32:12;;;;;;;21.85;11.15;;;;;;;;;;5091757;28;20027;-60
2023/06/23 08:34:38;;;;;;;21.10;11.25;;;;;;;;;;5086737;28;20032;-58
2023/06/23 08:37:04;;;;;;;17.33;10.43;;;;;;;;;;5067726;28;20027;-58
2023/06/23 08:39:31;;;;;;;18.25;10.00;;;;;;;;;;5071212;28;20392;-56
2023/06/23 08:41:58;;;;;;;18.73;10.45;;;;;;;;;;5070759;28;20036;-53
2023/06/23 08:44:26;;;;;;;21.50;11.43;;;;;;;;;;5070656;28;20028;-55
2023/06/23 08:46:57;;;;;;;18.90;10.77;;;;;;;;;;5071400;28;20032;-53
2023/06/23 08:49:24;;;;;;;17.52;10.48;;;;;;;;;;5071364;28;20028;-53
2023/06/23 08:51:51;;;;;;;17.77;10.50;;;;;;;;;;5071257;28;20097;-58
2023/06/23 08:54:17;;;;;;;17.70;10.65;;;;;;;;;;5070747;28;20024;-57
2023/06/23 08:56:44;;;;;;;17.60;10.52;;;;;;;;;;5071170;28;20504;-51
2023/06/23 08:59:11;;;;;;;17.98;10.80;;;;;;;;;;5071429;28;20028;-57
2023/06/23 09:01:37;;;;;;;19.90;11.18;;;;;;;;;;5079932;28;20165;-60
2023/06/23 09:04:03;;;;;;;16.00;10.13;;;;;;;;;;5090868;28;20024;-58
2023/06/23 09:06:29;;;;;;;17.75;10.73;;;;;;;;;;5085299;28;20024;-59
2023/06/23 09:08:55;;;;;;;17.52;9.85;;;;;;;;;;5095208;28;20103;-56
2023/06/23 09:11:22;;;;;;;17.65;11.05;;;;;;;;;;5095090;28;20024;-57
2023/06/23 09:13:48;;;;;;;17.50;10.60;;;;;;;;;;5089065;28;20492;-57
2023/06/23 09:16:16;;;;;;;16.45;10.40;;;;;;;;;;5084907;28;20488;-58
2023/06/23 09:18:42;;;;;;;;;;;;;;;;;;5095550;28;20016;-59
2023/06/23 09:21:09;;;;;;;17.35;9.60;;;;;;;;;;5094872;28;19904;-59
2023/06/23 09:23:35;;;;;;;20.17;10.73;;;;;;;;;;5094942;28;20036;-57
2023/06/23 09:26:03;;;;;;;16.73;10.30;;;;;;;;;;5094740;28;20043;-58
2023/06/23 09:28:30;;;;;;;18.17;10.45;;;;;;;;;;5095418;28;20043;-58
2023/06/23 09:30:57;;;;;;;17.63;10.63;;;;;;;;;;5095199;28;20028;-62
2023/06/23 09:33:24;;;;;;;19.25;10.98;;;;;;;;;;5094920;28;20484;-60
2023/06/23 09:35:54;;;;;;;17.00;11.07;;;;;;;;;;5094679;28;20024;-57
2023/06/23 09:38:29;;;;;;;18.98;11.23;;;;;;;;;;5094711;28;20077;-61
2023/06/23 09:41:21;;;;;;;18.13;11.77;;;;;;;;;;5094934;28;20438;-57
2023/06/23 09:43:52;;;;;;;19.00;11.05;;;;;;;;;;5073162;28;20035;-53
2023/06/23 09:46:19;;;;;;;16.65;10.40;;;;;;;;;;5076668;28;20028;-58
2023/06/23 09:48:46;;;;;;;17.02;10.75;;;;;;;;;;5094651;28;20035;-58
2023/06/23 09:51:12;;;;;;;16.75;10.88;;;;;;;;;;5094665;28;20020;-58
2023/06/23 09:53:40;;;;;;;16.50;9.82;;;;;;;;;;5094453;28;20023;-58
2023/06/23 09:56:07;;;;;;;17.13;9.97;;;;;;;;;;5094308;28;20103;-56
2023/06/23 09:58:37;;;;;;;17.40;10.70;;;;;;;;;;5094760;28;20286;-62
2023/06/23 10:01:04;;;;;;;18.52;11.40;;;;;;;;;;5094478;28;20024;-62
2023/06/23 10:03:31;;;;;;;17.47;11.70;;;;;;;;;;5094356;28;20028;-62
2023/06/23 10:05:57;;;;;;;17.30;11.32;;;;;;;;;;5094408;28;20034;-62
2023/06/23 10:08:25;;;;;;;18.40;11.60;;;;;;;;;;5094669;28;20483;-62
2023/06/23 10:10:51;;;;;;;16.85;11.05;;;;;;;;;;5094491;28;20043;-61
2023/06/23 10:13:17;;;;;;;16.65;10.95;;;;;;;;;;5075994;28;20020;-63
2023/06/23 10:15:43;;;;;;;17.88;11.65;;;;;;;;;;5075033;28;20024;-62
2023/06/23 10:18:12;;;;;;;18.15;11.50;;;;;;;;;;5073297;28;20048;-63
2023/06/23 10:20:39;;;;;;;17.63;12.25;;;;;;;;;;5072409;28;20052;-62
2023/06/23 10:23:05;;;;;;;17.17;11.90;;;;;;;;;;5073737;28;20112;-63
2023/06/23 10:25:31;;;;;;;17.25;11.50;;;;;;;;;;5073858;28;20040;-63
2023/06/23 10:28:00;;;;;;;19.35;12.48;;;;;;;;;;5074211;28;20396;-63
2023/06/23 10:30:28;;;;;;;17.65;11.82;;;;;;;;;;5073710;28;20025;-62
2023/06/23 10:32:55;;;;;;;18.50;12.20;;;;;;;;;;5073428;28;20040;-63
2023/06/23 10:35:21;;;;;;;19.10;11.93;;;;;;;;;;5073739;28;20262;-63
2023/06/23 10:37:53;;;;;;;18.30;11.85;;;;;;;;;;5073250;28;20028;-63
2023/06/23 10:40:24;;;;;;;18.95;12.52;;;;;;;;;;5073296;28;20032;-64
2023/06/23 10:42:51;;;;;;;18.05;11.77;;;;;;;;;;5071451;28;20349;-63
2023/06/23 10:45:17;;;;;;;19.75;11.77;;;;;;;;;;5072492;28;20103;-64
2023/06/23 10:47:43;;;;;;;17.60;11.93;;;;;;;;;;5072789;28;20035;-61
2023/06/23 10:50:10;;;;;;;17.52;11.65;;;;;;;;;;5073139;28;20388;-60
2023/06/23 10:52:36;;;;;;;21.15;12.02;;;;;;;;;;5072516;28;20480;-60
2023/06/23 10:55:02;;;;;;;18.63;11.27;;;;;;;;;;5072839;28;20035;-59
2023/06/23 10:57:28;;;;;;;19.08;11.98;;;;;;;;;;5073683;28;20024;-56
2023/06/23 11:00:05;;;;;;;19.58;11.60;;;;;;;;;;5073424;28;20071;-63
2023/06/23 11:02:51;;;;;;;16.42;10.38;;;;;;;;;;5073036;28;20051;-64
2023/06/23 11:05:17;;;;;;;19.65;12.00;;;;;;;;;;5072676;28;20025;-61
2023/06/23 11:08:02;;;;;;;19.02;11.93;;;;;;;;;;5071696;28;20024;-61
2023/06/23 11:10:46;;;;;;;17.38;11.93;;;;;;;;;;5072182;28;20029;-55
2023/06/23 11:13:13;;;;;;;17.33;11.35;;;;;;;;;;5073664;28;20094;-61
2023/06/23 11:15:39;;;;;;;17.63;11.38;;;;;;;;;;5072136;28;20040;-62
2023/06/23 11:18:05;;;;;;;17.80;11.88;;;;;;;;;;5072908;28;20122;-62
2023/06/23 11:20:32;;;;;;;17.48;11.65;;;;;;;;;;5071321;28;20025;-60
2023/06/23 11:23:05;;;;;;;19.67;12.73;;;;;;;;;;5072591;28;20169;-66
2023/06/23 11:25:31;;;;;;;19.08;12.20;;;;;;;;;;5072427;28;20093;-63
2023/06/23 11:28:15;;;;;;;18.02;12.80;;;;;;;;;;5070623;28;20058;-62
2023/06/23 11:30:53;;;;;;;18.40;12.45;;;;;;;;;;5070538;28;20418;-63
2023/06/23 11:33:29;;;;;;;17.75;12.45;;;;;;;;;;5070949;28;20108;-61
2023/06/23 11:35:56;;;;;;;19.17;12.52;;;;;;;;;;5072239;28;20025;-63
2023/06/23 11:38:22;;;;;;;17.13;12.35;;;;;;;;;;5071078;28;20361;-61
2023/06/23 11:40:50;;;;;;;16.48;11.55;;;;;;;;;;5071999;28;20074;-65
2023/06/23 11:43:18;;;;;;;19.38;12.48;;;;;;;;;;5072372;28;20024;-63
2023/06/23 11:45:51;;;;;;;18.40;12.60;;;;;;;;;;5071774;28;20028;-63
2023/06/23 11:48:17;;;;;;;19.92;13.55;;;;;;;;;;5072075;28;20028;-65
2023/06/23 11:50:43;;;;;;;18.70;13.25;;;;;;;;;;5071471;28;20032;-64
2023/06/23 11:53:10;;;;;;;18.48;13.32;;;;;;;;;;5071889;28;20020;-63
2023/06/23 11:55:36;;;;;;;18.17;12.80;;;;;;;;;;5070450;28;20029;-61
2023/06/23 11:58:03;;;;;;;16.90;12.73;;;;;;;;;;5071737;28;20024;-62
2023/06/23 12:00:30;;;;;;;17.60;13.23;;;;;;;;;;5071367;28;20040;-63
2023/06/23 12:02:58;;;;;;;17.30;13.48;;;;;;;;;;5070306;28;20025;-62
2023/06/23 12:05:24;;;;;;;19.40;14.02;;;;;;;;;;5070206;28;20369;-62
2023/06/23 12:07:50;;;;;;;19.05;13.98;;;;;;;;;;5071683;28;20028;-62
2023/06/23 12:10:17;;;;;;;19.00;13.75;;;;;;;;;;5070188;28;20031;-63
2023/06/23 12:12:43;;;;;;;17.75;14.02;;;;;;;;;;5070102;28;20074;-62
2023/06/23 12:15:10;;;;;;;19.00;13.68;;;;;;;;;;5073430;28;20016;-60
2023/06/23 12:17:42;;;;;;;16.90;13.65;;;;;;;;;;5083487;28;20040;-62
2023/06/23 12:20:09;;;;;;;17.25;13.32;;;;;;;;;;5079528;28;20020;-61
2023/06/23 12:22:36;;;;;;;18.60;13.57;;;;;;;;;;5083060;28;20083;-62
2023/06/23 12:25:04;;;;;;;18.38;13.50;;;;;;;;;;5090690;28;20020;-61
2023/06/23 12:27:30;;;;;;;16.33;13.45;;;;;;;;;;5083012;28;20073;-57
2023/06/23 12:29:56;;;;;;;17.58;14.15;;;;;;;;;;5072598;28;20052;-60
2023/06/23 12:32:32;;;;;;;17.90;13.75;;;;;;;;;;5070694;28;20043;-61
2023/06/23 12:34:58;;;;;;;17.45;13.65;;;;;;;;;;5071193;28;20512;-63
2023/06/23 12:37:23;;;;;;;16.85;14.00;;;;;;;;;;5074436;28;20024;-62
2023/06/23 12:39:54;;;;;;;18.35;13.90;;;;;;;;;;5072733;28;20032;-62
2023/06/23 12:42:20;;;;;;;19.20;14.35;;;;;;;;;;5070157;28;20357;-63
2023/06/23 12:44:46;;;;;;;17.40;13.73;;;;;;;;;;5070838;28;20080;-62
2023/06/23 12:47:12;;;;;;;17.27;13.88;;;;;;;;;;5071003;28;20028;-64
2023/06/23 12:49:38;;;;;;;16.98;13.48;;;;;;;;;;5051821;28;20768;-62
2023/06/23 12:52:05;;;;;;;16.88;13.60;;;;;;;;;;5070173;28;20107;-60
2023/06/23 12:54:31;;;;;;;18.60;13.75;;;;;;;;;;5070437;28;20031;-61
2023/06/23 12:56:58;;;;;;;17.30;13.50;;;;;;;;;;5070841;28;20126;-61
2023/06/23 12:59:25;;;;;;;16.40;13.43;;;;;;;;;;5053227;28;20039;-63
2023/06/23 13:01:51;;;;;;;17.47;13.80;;;;;;;;;;4717927;28;9999927;-61
2023/06/23 13:04:17;;;;;;;17.20;13.60;;;;;;;;;;5062097;28;20040;-61
2023/06/23 13:06:43;;;;;;;16.70;13.68;;;;;;;;;;5054653;28;20036;-61
2023/06/23 13:09:09;;;;;;;17.25;13.60;;;;;;;;;;5068386;28;21037;-61
2023/06/23 13:11:35;;;;;;;18.25;13.43;;;;;;;;;;5056222;28;20191;-61
2023/06/23 13:14:01;;;;;;;17.02;13.43;;;;;;;;;;5051763;28;20099;-59
2023/06/23 13:16:27;;;;;;;16.50;13.93;;;;;;;;;;5049860;28;20028;-61
2023/06/23 13:18:53;;;;;;;17.52;14.02;;;;;;;;;;5065773;28;20047;-62
2023/06/23 13:21:19;;;;;;;16.90;14.65;;;;;;;;;;5047812;28;20065;-61
2023/06/23 13:23:45;;;;;;;15.80;13.20;;;;;;;;;;5047339;28;20041;-62
2023/06/23 13:26:11;;;;;;;17.00;13.80;;;;;;;;;;5047645;28;20497;-60
2023/06/23 13:28:38;;;;;;;19.60;13.82;;;;;;;;;;5053520;28;20071;-60
2023/06/23 13:31:04;;;;;;;17.52;13.02;;;;;;;;;;5066968;28;20142;-62
2023/06/23 13:33:30;;;;;;;17.20;13.60;;;;;;;;;;5067478;28;20028;-61
2023/06/23 13:35:56;;;;;;;16.75;13.70;;;;;;;;;;5066391;28;20032;-62
2023/06/23 13:38:22;;;;;;;17.65;13.75;;;;;;;;;;5047788;28;20028;-62
2023/06/23 13:40:48;;;;;;;16.88;13.75;;;;;;;;;;5030138;28;20480;-61
2023/06/23 13:43:14;;;;;;;17.20;13.82;;;;;;;;;;5029911;28;20036;-63
2023/06/23 13:45:40;;;;;;;18.13;14.15;;;;;;;;;;5047776;28;20167;-60
2023/06/23 13:48:06;;;;;;;16.92;14.60;;;;;;;;;;5047616;28;20055;-60
2023/06/23 13:50:32;;;;;;;16.83;13.88;;;;;;;;;;5048987;28;20047;-61
2023/06/23 13:52:58;;;;;;;16.52;13.50;;;;;;;;;;5051205;28;20453;-60
2023/06/23 13:55:25;;;;;;;17.38;14.07;;;;;;;;;;5051120;28;20435;-62
2023/06/23 13:57:51;;;;;;;18.05;14.07;;;;;;;;;;5050950;28;20029;-62
2023/06/23 14:00:18;;;;;;;17.58;14.50;;;;;;;;;;5051111;28;20028;-60
2023/06/23 14:02:44;;;;;;;17.88;14.50;;;;;;;;;;5037791;28;20465;-56
2023/06/23 14:05:12;;;;;;;17.08;13.85;;;;;;;;;;5051228;28;20029;-59
2023/06/23 14:07:38;;;;;;;16.80;13.80;;;;;;;;;;5051127;28;20025;-62
2023/06/23 14:10:04;;;;;;;16.70;13.63;;;;;;;;;;5052035;28;20040;-57
2023/06/23 14:12:30;;;;;;;16.90;13.25;;;;;;;;;;5072356;28;20040;-62
2023/06/23 14:14:56;;;;;;;16.73;13.52;;;;;;;;;;5071756;28;20061;-60
2023/06/23 14:17:22;;;;;;;16.67;14.27;;;;;;;;;;5055237;28;20028;-58
2023/06/23 14:19:48;;;;;;;17.17;14.13;;;;;;;;;;5073784;28;20388;-59
2023/06/23 14:22:14;;;;;;;17.52;14.68;;;;;;;;;;5073794;28;20098;-58